CheckWX is a tool to help pilots better visualize weather data.  It is not intended as a substitute for an official pre-flight weather briefing.

12:23:40 UTC

CYMM METAR
Fort McMurray Airport
Fort McMurray, Alberta, Canada
Current

24 mins ago

CYMM 181200Z AUTO 10003KT 9SM FEW240 M31/M35 A3046 RMK SLP367
Observed
Feb-18 @ 12:00 UTC
Wind
  • 100° at 3 KTS
Visibility
9 SM
Flight Rules
VFR
Cloud Levels
  • Few at 24,000' AGL
Temperature
-31°C / -24°F
Dewpoint
-35°C / -31°F
Humidity
68%
Altimeter
30.46" Hg
Pressure
1036.7 hPa
Previous

1 hour ago

CYMM 181100Z AUTO 12007KT 9SM FEW240 M32/M35 A3048 RMK SLP375
Observed
Feb-18 @ 11:00 UTC
Wind
  • 120° at 7 KTS
Visibility
9 SM
Flight Rules
VFR
Cloud Levels
  • Few at 24,000' AGL
Temperature
-32°C / -26°F
Dewpoint
-35°C / -31°F
Humidity
75%
Altimeter
30.48" Hg
Pressure
1037.5 hPa
Previous

2 hours ago

CYMM 181034Z AUTO 09004KT 9SM FEW230 M32/M36 A3049 RMK SLP379
Observed
Feb-18 @ 10:34 UTC
Wind
  • 090° at 4 KTS
Visibility
9 SM
Flight Rules
VFR
Cloud Levels
  • Few at 23,000' AGL
Temperature
-32°C / -26°F
Dewpoint
-36°C / -33°F
Humidity
67%
Altimeter
30.49" Hg
Pressure
1037.9 hPa